Terminal Aerodrome Forecast
Issued by NWS Wichita, KS

Home | Current Version | Previous Version | Text Only | Print | Product List | Glossary Off
Versions: 1 2 3 4 5 6 7 8 9 10 11 12 13 14 15 16 17 18 19 20 21 22 23 24 25 26 27 28

194
FTUS43 KICT 191140
TAFICT
TAF
KICT 191140Z 1912/2012 20022G30KT P6SM SCT020 OVC250
     FM191300 31013KT P6SM OVC012
     FM191500 35017KT P6SM VCSH OVC015
     FM192200 01013KT P6SM OVC015=

USA.gov is the U.S. government's official web portal to all federal, state and local government web resources and services.